Time;durP1;ratioP1;P1;durP2;ratioP2;P2;SDS_P1;SDS_P2;PMS_P1;PMS_P2;Temp;Humidity;BMP_temperature;BMP_pressure;BME280_temperature;BME280_humidity;BME280_pressure;Samples;Min_cycle;Max_cycle;Signal;HPM_P1;HPM_P2
2021/07/27 00:01:35;;;;;;;;;;;;;;;26.57;34.18;99981.44;5090718;28;19912;-37
2021/07/27 00:04:00;;;;;;;;;;;;;;;26.39;34.14;99983.97;5091313;28;19973;-37
2021/07/27 00:06:26;;;;;;;;;;;;;;;26.44;34.27;99983.06;5091019;28;19980;-37
2021/07/27 00:08:51;;;;;;;;;;;;;;;26.44;34.63;99985.78;5091118;28;20309;-37
2021/07/27 00:11:16;;;;;;;;;;;;;;;26.36;34.96;99975.59;5090755;28;19919;-38
2021/07/27 00:13:42;;;;;;;;;;;;;;;26.23;35.27;99977.19;5091352;28;19965;-38
2021/07/27 00:16:07;;;;;;;;;;;;;;;26.31;35.12;99987.41;5090498;28;20431;-38
2021/07/27 00:18:32;;;;;;;;;;;;;;;26.48;34.02;99990.34;5090881;28;20018;-38
2021/07/27 00:20:59;;;;;;;;;;;;;;;26.30;34.34;99967.50;5093694;28;20007;-37
2021/07/27 00:23:24;;;;;;;;;;;;;;;26.61;34.51;99986.00;5095114;28;19918;-37
2021/07/27 00:25:50;;;;;;;;;;;;;;;26.66;34.64;99994.09;5094762;28;19912;-37
2021/07/27 00:28:15;;;;;;;;;;;;;;;26.53;35.09;99992.16;5094974;28;19919;-38
2021/07/27 00:30:40;;;;;;;;;;;;;;;26.39;35.40;99994.91;5094972;28;20441;-37
2021/07/27 00:33:06;;;;;;;;;;;;;;;26.42;35.53;100001.66;5094741;28;19916;-37
2021/07/27 00:35:32;;;;;;;;;;;;;;;26.22;36.13;100005.59;5094811;28;19919;-37
2021/07/27 00:38:19;;;;;;;;;;;;;;;26.37;35.83;100004.47;5094464;28;19998;-38
2021/07/27 00:40:43;;;;;;;;;;;;;;;26.40;35.00;99999.22;5094487;28;19927;-37
2021/07/27 00:43:11;;;;;;;;;;;;;;;25.92;36.56;99992.22;5094458;28;19912;-37
2021/07/27 00:45:37;;;;;;;;;;;;;;;26.02;36.46;99993.13;5094602;28;19920;-37
2021/07/27 00:48:02;;;;;;;;;;;;;;;26.00;36.89;99990.69;5094605;28;19912;-37
2021/07/27 00:50:28;;;;;;;;;;;;;;;25.61;37.24;99980.19;5094395;28;20346;-37
2021/07/27 00:52:57;;;;;;;;;;;;;;;25.60;37.53;99990.28;5094119;28;20149;-37
2021/07/27 00:55:22;;;;;;;;;;;;;;;25.70;37.78;99983.84;5094199;28;20368;-37
2021/07/27 00:57:48;;;;;;;;;;;;;;;25.68;37.67;99975.16;5094616;28;19912;-37
2021/07/27 01:00:13;;;;;;;;;;;;;;;25.56;37.98;99983.81;5094202;28;20363;-37
2021/07/27 01:02:38;;;;;;;;;;;;;;;25.78;37.38;99985.06;5094048;28;20010;-37
2021/07/27 01:05:04;;;;;;;;;;;;;;;25.74;37.59;99985.69;5094251;28;20001;-37
2021/07/27 01:07:29;;;;;;;;;;;;;;;25.70;37.98;99992.00;5094186;28;19950;-38
2021/07/27 01:09:55;;;;;;;;;;;;;;;25.61;38.07;99991.06;5092583;28;20404;-36
2021/07/27 01:12:20;;;;;;;;;;;;;;;25.70;37.68;99994.75;5094430;28;19924;-37
2021/07/27 01:14:45;;;;;;;;;;;;;;;25.45;37.75;99994.06;5093935;28;20041;-36
2021/07/27 01:17:10;;;;;;;;;;;;;;;25.27;38.08;100000.34;5094073;28;20360;-36
2021/07/27 01:19:57;;;;;;;;;;;;;;;25.21;38.38;99998.75;5093879;28;20324;-37
2021/07/27 01:43:46;;;;;;;;;;;;;;;25.32;38.46;99990.19;5102788;28;19947;-38
2021/07/27 01:46:15;;;;;;;;;;;;;;;25.14;38.92;99971.91;5113833;28;19912;-37
2021/07/27 01:48:40;;;;;;;;;;;;;;;25.15;39.40;100001.56;5113730;28;20053;-38
2021/07/27 01:51:05;;;;;;;;;;;;;;;25.11;39.71;100007.88;5113656;28;19981;-37
2021/07/27 01:53:34;;;;;;;;;;;;;;;25.18;39.52;100011.84;5113518;28;20065;-37
2021/07/27 01:55:59;;;;;;;;;;;;;;;25.08;39.87;100011.19;5113575;28;19927;-38
2021/07/27 01:58:24;;;;;;;;;;;;;;;25.00;40.22;100018.13;5114003;28;19911;-36
2021/07/27 02:00:50;;;;;;;;;;;;;;;25.00;40.27;100026.28;5113642;28;19911;-36
2021/07/27 02:03:15;;;;;;;;;;;;;;;25.18;39.43;100021.94;5112149;28;20299;-37
2021/07/27 02:05:40;;;;;;;;;;;;;;;24.94;39.94;100017.38;5113204;28;19954;-37
2021/07/27 02:08:06;;;;;;;;;;;;;;;25.12;39.68;100014.94;5093050;28;20343;-37
2021/07/27 02:10:31;;;;;;;;;;;;;;;25.02;39.96;100013.19;5092919;28;19912;-37
2021/07/27 02:13:01;;;;;;;;;;;;;;;24.85;39.94;100010.97;5092672;28;19946;-37
2021/07/27 02:15:37;;;;;;;;;;;;;;;25.05;39.37;100015.31;5092721;28;20320;-37
2021/07/27 02:18:02;;;;;;;;;;;;;;;25.06;39.55;100007.97;5092811;28;19999;-37
2021/07/27 02:20:29;;;;;;;;;;;;;;;24.97;39.87;100005.06;5092581;28;20330;-37
2021/07/27 02:22:54;;;;;;;;;;;;;;;24.91;40.26;100009.78;5092899;28;20011;-38
2021/07/27 02:25:19;;;;;;;;;;;;;;;25.03;39.63;100008.53;5091291;28;19999;-38
2021/07/27 02:27:44;;;;;;;;;;;;;;;24.92;39.94;100005.13;5092564;28;20007;-37
2021/07/27 02:30:10;;;;;;;;;;;;;;;24.92;39.84;100008.69;5092383;28;19920;-37
2021/07/27 02:32:35;;;;;;;;;;;;;;;25.02;40.21;100010.47;5092427;28;19916;-36
2021/07/27 02:35:01;;;;;;;;;;;;;;;24.85;40.69;100016.41;5092468;28;20407;-37
2021/07/27 02:37:28;;;;;;;;;;;;;;;24.70;40.76;100006.50;5092330;28;19922;-37
2021/07/27 02:39:54;;;;;;;;;;;;;;;24.48;41.12;100015.16;5092397;28;20357;-37
2021/07/27 02:42:19;;;;;;;;;;;;;;;24.42;41.42;100012.81;5091817;28;19920;-38
2021/07/27 02:44:44;;;;;;;;;;;;;;;24.40;41.39;100013.91;5091905;28;19919;-37
2021/07/27 02:47:09;;;;;;;;;;;;;;;24.57;41.43;100015.38;5092213;28;19934;-37
2021/07/27 02:49:35;;;;;;;;;;;;;;;24.48;41.94;100014.38;5092335;28;20344;-37
2021/07/27 02:52:01;;;;;;;;;;;;;;;24.59;42.10;100013.97;5092090;28;19916;-37
2021/07/27 02:54:26;;;;;;;;;;;;;;;24.55;42.01;100014.88;5092114;28;19940;-37
2021/07/27 02:56:51;;;;;;;;;;;;;;;24.54;41.98;100011.34;5090600;28;20336;-38
2021/07/27 02:59:16;;;;;;;;;;;;;;;24.62;41.83;100012.59;5091988;28;20397;-37
2021/07/27 03:01:43;;;;;;;;;;;;;;;24.73;41.46;100022.28;5092060;28;19918;-37
2021/07/27 03:04:08;;;;;;;;;;;;;;;24.73;41.77;100021.44;5092175;28;19912;-37
2021/07/27 03:06:33;;;;;;;;;;;;;;;24.84;41.46;100022.13;5091571;28;20386;-38
2021/07/27 03:11:24;;;;;;;;;;;;;;;24.78;41.70;100030.34;5091750;28;19931;-38
2021/07/27 03:13:50;;;;;;;;;;;;;;;24.80;41.44;100040.16;5091833;28;19934;-36
2021/07/27 03:16:16;;;;;;;;;;;;;;;24.68;41.54;100030.47;5091682;28;19934;-37
2021/07/27 03:18:42;;;;;;;;;;;;;;;24.75;42.06;100038.28;5091257;28;20450;-37
2021/07/27 03:21:07;;;;;;;;;;;;;;;24.74;41.95;100039.41;5092035;28;19957;-38
2021/07/27 03:23:33;;;;;;;;;;;;;;;24.90;41.04;100037.28;5091713;28;19998;-37
2021/07/27 03:25:58;;;;;;;;;;;;;;;24.92;40.94;100037.81;5091598;28;19913;-38
2021/07/27 03:28:23;;;;;;;;;;;;;;;24.82;41.37;100051.53;5091471;28;19916;-37
2021/07/27 03:30:49;;;;;;;;;;;;;;;24.92;41.10;100040.53;5091273;28;19920;-38
2021/07/27 03:33:14;;;;;;;;;;;;;;;24.94;41.12;100049.19;5091183;28;20427;-38
2021/07/27 03:35:40;;;;;;;;;;;;;;;24.87;41.05;100052.28;5091237;28;20265;-37
2021/07/27 03:38:05;;;;;;;;;;;;;;;24.75;41.66;100051.88;5091227;28;19930;-38
2021/07/27 03:40:30;;;;;;;;;;;;;;;24.83;41.49;100051.25;5091381;28;19953;-38
2021/07/27 03:42:56;;;;;;;;;;;;;;;25.06;41.19;100040.63;5091107;28;20342;-38
2021/07/27 03:45:21;;;;;;;;;;;;;;;25.15;40.72;100038.84;5091073;28;19912;-37
2021/07/27 03:47:47;;;;;;;;;;;;;;;25.13;41.30;100041.06;5091035;28;19912;-38
2021/07/27 03:50:12;;;;;;;;;;;;;;;25.17;41.44;100047.56;5091262;28;20343;-38
2021/07/27 03:52:38;;;;;;;;;;;;;;;25.20;41.59;100048.88;5090947;28;19920;-38
2021/07/27 03:55:03;;;;;;;;;;;;;;;25.45;41.05;100053.97;5091041;28;19912;-38
2021/07/27 03:57:29;;;;;;;;;;;;;;;25.55;41.02;100053.00;5091102;28;19935;-38
2021/07/27 03:59:54;;;;;;;;;;;;;;;25.58;41.05;100055.16;5090400;28;20003;-38
2021/07/27 04:02:19;;;;;;;;;;;;;;;25.82;40.51;100048.81;5090511;28;19922;-37
2021/07/27 04:04:47;;;;;;;;;;;;;;;25.97;40.32;100050.47;5090245;28;19912;-38
2021/07/27 04:07:13;;;;;;;;;;;;;;;26.17;39.91;100052.03;5089822;28;19912;-38
2021/07/27 04:09:39;;;;;;;;;;;;;;;26.09;40.28;100048.09;5090279;28;19985;-38
2021/07/27 04:12:05;;;;;;;;;;;;;;;26.13;40.18;100043.66;5090289;28;20019;-38
2021/07/27 04:14:31;;;;;;;;;;;;;;;26.29;40.41;100050.47;5090010;28;20002;-37
2021/07/27 04:16:57;;;;;;;;;;;;;;;26.30;40.02;100060.25;5090347;28;19920;-37
2021/07/27 04:19:22;;;;;;;;;;;;;;;26.62;39.68;100055.84;5088800;28;19924;-36
2021/07/27 04:21:47;;;;;;;;;;;;;;;26.75;39.21;100056.97;5090114;28;19969;-37
2021/07/27 04:24:12;;;;;;;;;;;;;;;27.01;38.83;100057.22;5090459;28;19912;-37
2021/07/27 04:26:38;;;;;;;;;;;;;;;27.11;38.69;100061.66;5088755;28;20312;-37
2021/07/27 04:29:03;;;;;;;;;;;;;;;27.36;38.08;100056.78;5090442;28;19919;-38
2021/07/27 04:31:30;;;;;;;;;;;;;;;27.59;38.00;100063.91;5090616;28;20263;-38
2021/07/27 04:33:55;;;;;;;;;;;;;;;27.66;37.80;100056.09;5090547;28;20354;-37
2021/07/27 04:36:20;;;;;;;;;;;;;;;27.87;37.41;100052.81;5090425;28;19912;-37
2021/07/27 04:38:45;;;;;;;;;;;;;;;28.19;36.99;100065.44;5090044;28;19924;-38
2021/07/27 04:41:11;;;;;;;;;;;;;;;28.28;36.85;100068.22;5090209;28;19951;-37
2021/07/27 04:43:36;;;;;;;;;;;;;;;28.38;36.76;100069.88;5090344;28;19931;-38
2021/07/27 04:46:02;;;;;;;;;;;;;;;28.45;36.51;100057.34;5090213;28;19912;-38
2021/07/27 04:48:27;;;;;;;;;;;;;;;28.43;36.52;100067.81;5090339;28;20067;-38
2021/07/27 04:50:53;;;;;;;;;;;;;;;28.57;36.42;100066.94;5090138;28;20000;-37
2021/07/27 04:53:22;;;;;;;;;;;;;;;28.72;36.17;100069.25;5090363;28;19939;-38
2021/07/27 04:55:47;;;;;;;;;;;;;;;28.97;35.35;100070.44;5090114;28;20006;-38
2021/07/27 04:58:13;;;;;;;;;;;;;;;29.05;35.01;100064.19;5090000;28;20008;-36
2021/07/27 05:00:38;;;;;;;;;;;;;;;29.22;34.72;100068.09;5090111;28;20351;-37
2021/07/27 05:03:03;;;;;;;;;;;;;;;29.52;34.20;100069.06;5089708;28;19955;-37
2021/07/27 05:05:28;;;;;;;;;;;;;;;29.80;33.65;100072.31;5090154;28;19912;-37
2021/07/27 05:07:54;;;;;;;;;;;;;;;29.85;33.63;100078.75;5093630;28;20271;-38
2021/07/27 05:10:19;;;;;;;;;;;;;;;29.94;32.97;100080.34;5093789;28;19912;-36
2021/07/27 05:12:45;;;;;;;;;;;;;;;30.09;32.85;100072.75;5092113;28;20379;-37
2021/07/27 05:15:10;;;;;;;;;;;;;;;30.33;32.39;100072.19;5093511;28;19919;-37
2021/07/27 05:17:35;;;;;;;;;;;;;;;30.13;32.62;100076.44;5093683;28;19957;-38
2021/07/27 05:20:01;;;;;;;;;;;;;;;30.32;31.89;100074.16;5093652;28;20388;-38
2021/07/27 05:22:26;;;;;;;;;;;;;;;30.57;31.70;100083.41;5087882;28;19916;-38
2021/07/27 05:24:53;;;;;;;;;;;;;;;30.86;30.93;100081.81;5078735;28;20232;-38
2021/07/27 05:27:22;;;;;;;;;;;;;;;30.89;30.69;100081.16;5093862;28;19996;-38
2021/07/27 05:29:48;;;;;;;;;;;;;;;31.22;29.83;100085.97;5093173;28;20012;-37
2021/07/27 05:32:13;;;;;;;;;;;;;;;31.47;29.69;100075.16;5092882;28;20014;-37
2021/07/27 05:34:39;;;;;;;;;;;;;;;31.49;29.60;100079.19;5093069;28;19916;-38
2021/07/27 05:37:04;;;;;;;;;;;;;;;31.70;29.31;100084.66;5093079;28;20379;-38
2021/07/27 05:39:29;;;;;;;;;;;;;;;31.84;28.77;100073.38;5093052;28;19912;-38
2021/07/27 05:41:54;;;;;;;;;;;;;;;32.02;28.74;100071.25;5093016;28;19944;-36
2021/07/27 05:44:24;;;;;;;;;;;;;;;32.12;28.58;100083.78;5107308;28;20443;-38
2021/07/27 05:46:50;;;;;;;;;;;;;;;32.22;28.38;100071.56;5113953;28;19946;-36
2021/07/27 05:49:15;;;;;;;;;;;;;;;32.58;27.67;100072.75;5113936;28;19912;-36
2021/07/27 05:51:41;;;;;;;;;;;;;;;32.69;27.46;100071.97;5113383;28;20379;-37
2021/07/27 05:54:06;;;;;;;;;;;;;;;32.83;27.45;100070.81;5113510;28;20387;-37
2021/07/27 05:56:31;;;;;;;;;;;;;;;33.25;27.19;100070.53;5113430;28;19977;-37
2021/07/27 05:58:57;;;;;;;;;;;;;;;33.53;26.88;100061.47;5093704;28;19919;-37
2021/07/27 06:01:22;;;;;;;;;;;;;;;33.59;26.82;100063.63;5093461;28;19923;-38
2021/07/27 06:03:47;;;;;;;;;;;;;;;33.81;25.53;100064.25;5093245;28;20003;-38
2021/07/27 06:06:13;;;;;;;;;;;;;;;33.72;25.96;100058.91;5092753;28;20244;-36
2021/07/27 06:08:38;;;;;;;;;;;;;;;34.08;25.52;100059.81;5091647;28;20289;-37
2021/07/27 06:11:04;;;;;;;;;;;;;;;34.09;25.62;100056.72;5092397;28;19919;-38
2021/07/27 06:13:30;;;;;;;;;;;;;;;34.18;25.40;100058.56;5092191;28;19916;-37
2021/07/27 06:15:55;;;;;;;;;;;;;;;34.35;25.25;100054.59;5092396;28;19923;-37
2021/07/27 06:18:20;;;;;;;;;;;;;;;34.54;24.58;100057.47;5091160;28;20425;-37
2021/07/27 06:20:46;;;;;;;;;;;;;;;35.41;23.97;100063.81;5092763;28;19978;-37
2021/07/27 06:23:11;;;;;;;;;;;;;;;34.81;24.58;100057.72;5092749;28;19913;-37
2021/07/27 06:25:37;;;;;;;;;;;;;;;34.91;24.41;100053.59;5092629;28;19935;-38
2021/07/27 06:28:02;;;;;;;;;;;;;;;35.05;24.22;100056.66;5091938;28;19950;-39
2021/07/27 06:30:27;;;;;;;;;;;;;;;35.19;23.77;100056.22;5092654;28;19919;-38
2021/07/27 06:32:53;;;;;;;;;;;;;;;36.18;23.02;100053.81;5092406;28;20435;-38
2021/07/27 06:35:18;;;;;;;;;;;;;;;35.24;24.06;100062.25;5092343;28;19968;-38
2021/07/27 06:37:43;;;;;;;;;;;;;;;34.97;24.40;100058.47;5092435;28;19919;-38
2021/07/27 06:40:09;;;;;;;;;;;;;;;35.10;24.33;100059.16;5092067;28;19912;-38
2021/07/27 06:42:34;;;;;;;;;;;;;;;35.39;24.05;100060.56;5092248;28;19916;-36
2021/07/27 06:44:59;;;;;;;;;;;;;;;34.54;24.89;100049.19;5110937;28;19992;-38
2021/07/27 06:47:25;;;;;;;;;;;;;;;35.36;24.15;100050.25;5111201;28;19918;-38
2021/07/27 06:49:50;;;;;;;;;;;;;;;35.27;24.43;100046.91;5111124;28;19935;-38
2021/07/27 06:52:22;;;;;;;;;;;;;;;35.28;23.96;100054.03;5108399;28;20399;-38
2021/07/27 06:54:47;;;;;;;;;;;;;;;35.53;23.76;100053.72;5090813;28;19916;-38
2021/07/27 06:57:12;;;;;;;;;;;;;;;35.91;23.42;100047.38;5090505;28;19919;-38
2021/07/27 06:59:37;;;;;;;;;;;;;;;36.46;22.61;100047.16;5090931;28;19918;-38
2021/07/27 07:02:03;;;;;;;;;;;;;;;36.56;22.38;100043.75;5090497;28;19912;-53
2021/07/27 07:04:28;;;;;;;;;;;;;;;36.29;23.10;100039.34;5089877;28;19950;-51
2021/07/27 07:06:54;;;;;;;;;;;;;;;35.79;23.14;100037.25;5090841;28;20460;-50
2021/07/27 07:09:19;;;;;;;;;;;;;;;36.10;23.06;100037.41;5090918;28;20406;-52
2021/07/27 07:11:44;;;;;;;;;;;;;;;36.66;22.53;100041.53;5090946;28;19968;-38
2021/07/27 07:14:09;;;;;;;;;;;;;;;36.98;22.11;100030.91;5091123;28;20006;-38
2021/07/27 07:16:35;;;;;;;;;;;;;;;36.65;22.41;100034.34;5091192;28;19920;-38
2021/07/27 07:19:00;;;;;;;;;;;;;;;36.47;22.82;100040.44;5090972;28;19992;-39
2021/07/27 07:21:25;;;;;;;;;;;;;;;36.51;22.78;100048.78;5091366;28;19916;-39
2021/07/27 07:23:50;;;;;;;;;;;;;;;36.64;22.78;100043.84;5091421;28;19912;-38
2021/07/27 07:26:16;;;;;;;;;;;;;;;37.16;22.48;100036.69;5091589;28;19959;-38
2021/07/27 07:28:41;;;;;;;;;;;;;;;37.66;21.17;100042.03;5090931;28;19912;-37
2021/07/27 07:31:16;;;;;;;;;;;;;;;36.53;22.20;100041.69;5090141;28;19912;-38
2021/07/27 07:33:41;;;;;;;;;;;;;;;36.25;22.80;100047.56;5089952;28;19920;-38
2021/07/27 07:36:13;;;;;;;;;;;;;;;36.05;22.43;100040.50;5090121;28;20003;-37
2021/07/27 07:38:39;;;;;;;;;;;;;;;36.27;22.51;100044.44;5090432;28;19912;-38
2021/07/27 07:41:05;;;;;;;;;;;;;;;36.94;21.21;100039.16;5089501;28;19919;-38
2021/07/27 07:43:30;;;;;;;;;;;;;;;37.11;21.96;100034.22;5097930;28;19912;-38
2021/07/27 07:45:55;;;;;;;;;;;;;;;37.07;21.45;100027.81;5110849;28;20039;-37
2021/07/27 07:48:22;;;;;;;;;;;;;;;37.05;21.76;100028.22;5110419;28;20307;-39
2021/07/27 07:50:47;;;;;;;;;;;;;;;37.14;21.58;100019.63;5111026;28;19919;-38
2021/07/27 07:53:12;;;;;;;;;;;;;;;37.42;20.91;100021.16;5110997;28;19916;-38
2021/07/27 07:55:38;;;;;;;;;;;;;;;38.09;20.65;100023.06;5111031;28;19911;-38
2021/07/27 07:58:03;;;;;;;;;;;;;;;37.33;20.96;100025.00;5111064;28;19912;-38
2021/07/27 08:00:28;;;;;;;;;;;;;;;37.20;21.17;100022.88;5110865;28;19915;-39
2021/07/27 08:02:54;;;;;;;;;;;;;;;37.16;21.11;100008.97;5111057;28;19912;-39
2021/07/27 08:05:19;;;;;;;;;;;;;;;37.46;20.81;100010.91;5111331;28;20015;-39
2021/07/27 08:07:45;;;;;;;;;;;;;;;37.62;20.60;100016.25;5111385;28;19916;-38
2021/07/27 08:10:10;;;;;;;;;;;;;;;37.79;20.03;100012.03;5111113;28;20002;-39
2021/07/27 08:12:36;;;;;;;;;;;;;;;37.35;21.20;100005.22;5111001;28;20455;-39
2021/07/27 08:15:01;;;;;;;;;;;;;;;37.31;20.70;100007.16;5111226;28;19911;-39
2021/07/27 08:17:26;;;;;;;;;;;;;;;37.11;21.55;100001.75;5110894;28;19919;-39
2021/07/27 08:19:52;;;;;;;;;;;;;;;37.66;20.40;100004.00;5110949;28;20329;-39
2021/07/27 08:22:17;;;;;;;;;;;;;;;37.77;20.19;100000.53;5110881;28;20273;-38
2021/07/27 08:24:42;;;;;;;;;;;;;;;37.87;19.67;100008.16;5111044;28;19943;-39
2021/07/27 08:27:08;;;;;;;;;;;;;;;37.41;20.81;100002.91;5111243;28;19961;-39
2021/07/27 08:29:36;;;;;;;;;;;;;;;37.24;21.44;100007.84;5110719;28;19918;-53
2021/07/27 08:32:08;;;;;;;;;;;;;;;36.97;21.35;99998.78;5110648;28;19916;-53
2021/07/27 08:34:36;;;;;;;;;;;;;;;37.35;21.29;99997.69;5110826;28;19911;-52
2021/07/27 08:37:01;;;;;;;;;;;;;;;37.52;21.20;99996.28;5110803;28;19912;-53
2021/07/27 08:39:26;;;;;;;;;;;;;;;37.51;20.83;99991.13;5110558;28;19912;-53
2021/07/27 08:41:52;;;;;;;;;;;;;;;37.71;20.47;99991.75;5113161;28;19945;-53
2021/07/27 08:44:17;;;;;;;;;;;;;;;37.30;21.32;99989.72;5113335;28;20373;-53
2021/07/27 08:46:44;;;;;;;;;;;;;;;37.75;20.74;99989.81;5114827;28;19919;-53
2021/07/27 08:49:09;;;;;;;;;;;;;;;37.95;21.03;99995.94;5113365;28;19915;-53
2021/07/27 08:51:34;;;;;;;;;;;;;;;38.26;20.38;99988.28;5114294;28;19979;-52
2021/07/27 08:54:00;;;;;;;;;;;;;;;38.89;20.04;99986.28;5114022;28;20382;-52
2021/07/27 08:56:25;;;;;;;;;;;;;;;39.36;19.23;99986.50;5114426;28;19912;-52
2021/07/27 08:58:50;;;;;;;;;;;;;;;38.62;19.62;99978.22;5114213;28;19998;-51
2021/07/27 09:01:26;;;;;;;;;;;;;;;38.29;19.95;99973.59;5113729;28;20280;-51
2021/07/27 09:03:51;;;;;;;;;;;;;;;38.37;20.13;99968.91;5114099;28;19927;-51
2021/07/27 09:06:19;;;;;;;;;;;;;;;38.43;20.16;99968.13;5113980;28;19918;-52
2021/07/27 09:08:45;;;;;;;;;;;;;;;37.61;20.54;99965.50;5112457;28;19926;-51
2021/07/27 09:11:12;;;;;;;;;;;;;;;38.55;19.64;99971.81;5114037;28;19923;-52
2021/07/27 09:13:37;;;;;;;;;;;;;;;38.31;19.87;99969.25;5113391;28;19919;-53
2021/07/27 09:16:03;;;;;;;;;;;;;;;38.05;20.38;99972.22;5113704;28;19989;-52
2021/07/27 09:18:29;;;;;;;;;;;;;;;38.14;20.45;99973.50;5114434;28;20035;-53
2021/07/27 09:20:55;;;;;;;;;;;;;;;38.44;19.59;99966.97;5114294;28;19954;-52
2021/07/27 09:23:27;;;;;;;;;;;;;;;38.58;19.92;99973.81;5114009;28;20312;-52
2021/07/27 09:25:56;;;;;;;;;;;;;;;38.42;19.73;99969.31;5113646;28;20314;-52
2021/07/27 09:28:21;;;;;;;;;;;;;;;38.74;19.90;99965.94;5113574;28;19969;-53
2021/07/27 09:30:47;;;;;;;;;;;;;;;39.42;19.60;99962.66;5113473;28;19911;-53
2021/07/27 09:33:13;;;;;;;;;;;;;;;39.30;19.33;99969.38;5113599;28;19966;-52
2021/07/27 09:35:39;;;;;;;;;;;;;;;39.07;19.72;99964.94;5113560;28;20279;-52
2021/07/27 09:38:04;;;;;;;;;;;;;;;38.74;20.31;99959.59;5113642;28;19968;-54
2021/07/27 09:40:29;;;;;;;;;;;;;;;38.94;19.94;99955.31;5113700;28;19944;-51
2021/07/27 09:42:55;;;;;;;;;;;;;;;39.40;19.62;99965.03;5113320;28;19987;-52
2021/07/27 09:45:20;;;;;;;;;;;;;;;39.71;18.47;99959.94;5112286;28;19908;-52
2021/07/27 09:47:48;;;;;;;;;;;;;;;40.81;18.02;99949.88;5113219;28;19912;-51
2021/07/27 09:50:14;;;;;;;;;;;;;;;40.61;17.44;99958.69;5111901;28;19965;-53
2021/07/27 09:52:39;;;;;;;;;;;;;;;39.61;18.84;99958.72;5113040;27;19916;-52
2021/07/27 09:55:05;;;;;;;;;;;;;;;39.57;19.24;99969.84;5113373;28;19912;-52
2021/07/27 09:57:30;;;;;;;;;;;;;;;39.78;18.75;99955.16;5111910;28;19960;-52
2021/07/27 09:59:56;;;;;;;;;;;;;;;39.88;18.97;99946.03;5113265;28;19920;-52
2021/07/27 10:02:21;;;;;;;;;;;;;;;39.97;18.99;99942.84;5113293;28;20301;-53
2021/07/27 10:04:47;;;;;;;;;;;;;;;40.54;17.99;99938.41;5113100;28;19923;-53
2021/07/27 10:07:13;;;;;;;;;;;;;;;40.28;17.69;99928.47;5111801;28;19918;-52
2021/07/27 10:09:38;;;;;;;;;;;;;;;39.86;18.73;99931.66;5113193;28;20358;-53
2021/07/27 10:12:04;;;;;;;;;;;;;;;39.75;18.05;99922.53;5111450;28;19923;-53
2021/07/27 10:14:36;;;;;;;;;;;;;;;39.74;19.23;99918.16;5113331;28;19912;-53
2021/07/27 10:17:02;;;;;;;;;;;;;;;39.79;18.90;99912.16;5111820;28;20320;-53
2021/07/27 10:19:35;;;;;;;;;;;;;;;40.27;18.20;99910.97;5112699;28;19930;-54
2021/07/27 10:22:01;;;;;;;;;;;;;;;40.13;18.09;99914.56;5112747;28;19912;-52
2021/07/27 10:24:34;;;;;;;;;;;;;;;39.00;19.47;99906.50;5112434;27;19916;-52
2021/07/27 10:27:05;;;;;;;;;;;;;;;39.05;19.64;99905.31;5112670;28;19911;-51
2021/07/27 10:29:30;;;;;;;;;;;;;;;39.08;19.45;99896.19;5112738;28;20041;-51
2021/07/27 10:31:55;;;;;;;;;;;;;;;38.60;19.83;99902.75;5112086;28;19943;-53
2021/07/27 10:34:30;;;;;;;;;;;;;;;39.00;19.85;99898.16;5112295;28;19953;-52
2021/07/27 10:36:58;;;;;;;;;;;;;;;39.78;18.12;99898.66;5112221;28;20011;-51
2021/07/27 10:39:23;;;;;;;;;;;;;;;39.43;18.63;99894.66;5110689;28;19923;-53
2021/07/27 10:41:49;;;;;;;;;;;;;;;39.02;19.31;99901.34;5112184;28;19912;-52
2021/07/27 10:44:22;;;;;;;;;;;;;;;38.68;19.37;99890.47;5110687;28;20524;-52
2021/07/27 10:46:51;;;;;;;;;;;;;;;38.80;19.60;99889.31;5111713;28;19912;-51
2021/07/27 10:49:24;;;;;;;;;;;;;;;38.74;19.48;99874.19;5112014;28;19912;-53
2021/07/27 10:51:51;;;;;;;;;;;;;;;39.13;18.70;99881.09;5110131;28;19916;-51
2021/07/27 10:54:17;;;;;;;;;;;;;;;38.77;18.79;99879.00;5111999;28;19911;-52
2021/07/27 10:56:57;;;;;;;;;;;;;;;38.48;19.59;99869.69;5112021;28;19960;-51
2021/07/27 10:59:24;;;;;;;;;;;;;;;38.53;19.93;99861.81;5111757;28;19919;-51
2021/07/27 11:01:49;;;;;;;;;;;;;;;38.92;18.70;99863.94;5111839;28;20003;-52
2021/07/27 11:04:17;;;;;;;;;;;;;;;38.87;19.06;99863.53;5110944;28;19955;-53
2021/07/27 11:06:42;;;;;;;;;;;;;;;39.31;18.11;99865.22;5111373;28;20010;-53
2021/07/27 11:09:11;;;;;;;;;;;;;;;39.61;18.46;99856.50;5111876;28;20011;-52
2021/07/27 11:11:46;;;;;;;;;;;;;;;39.38;18.75;99859.66;5111770;28;19969;-53
2021/07/27 11:14:21;;;;;;;;;;;;;;;39.10;18.74;99850.09;5112061;28;19912;-53
2021/07/27 11:16:46;;;;;;;;;;;;;;;38.82;18.75;99848.03;5111836;28;20010;-53
2021/07/27 11:19:22;;;;;;;;;;;;;;;38.58;18.91;99848.75;5111793;28;20320;-52
2021/07/27 11:21:47;;;;;;;;;;;;;;;38.87;19.32;99847.63;5111881;28;19912;-52
2021/07/27 11:24:13;;;;;;;;;;;;;;;39.00;18.34;99852.88;5110355;28;19912;-52
2021/07/27 11:26:38;;;;;;;;;;;;;;;39.28;17.95;99846.53;5110314;28;19912;-52
2021/07/27 11:29:10;;;;;;;;;;;;;;;39.26;18.67;99837.78;5111210;28;20019;-51
2021/07/27 11:31:48;;;;;;;;;;;;;;;39.61;18.18;99839.03;5111119;28;20417;-51
2021/07/27 11:34:13;;;;;;;;;;;;;;;39.40;18.45;99845.34;5111588;28;20524;-52
2021/07/27 11:36:38;;;;;;;;;;;;;;;39.23;18.70;99833.81;5111190;28;19951;-52
2021/07/27 11:39:04;;;;;;;;;;;;;;;39.21;18.71;99829.84;5109853;28;19911;-53
2021/07/27 11:41:30;;;;;;;;;;;;;;;39.14;18.49;99830.63;5111235;28;19935;-53
2021/07/27 11:43:55;;;;;;;;;;;;;;;39.62;18.10;99832.25;5109657;28;20320;-53
2021/07/27 11:46:21;;;;;;;;;;;;;;;39.53;18.29;99823.50;5111231;28;19919;-53
2021/07/27 11:48:53;;;;;;;;;;;;;;;39.56;19.04;99828.28;5109624;28;19965;-53
2021/07/27 11:51:38;;;;;;;;;;;;;;;39.21;18.23;99819.50;5110905;28;19942;-53
2021/07/27 11:54:03;;;;;;;;;;;;;;;39.75;18.15;99821.50;5110512;28;19915;-53
2021/07/27 11:56:29;;;;;;;;;;;;;;;39.41;18.73;99810.75;5109543;28;20417;-52
2021/07/27 11:59:01;;;;;;;;;;;;;;;39.59;18.97;99805.22;5109954;28;20277;-51
2021/07/27 12:01:38;;;;;;;;;;;;;;;40.10;18.51;99797.56;5110693;28;20423;-52
2021/07/27 12:04:03;;;;;;;;;;;;;;;39.69;18.56;99805.19;5110894;28;20393;-51
2021/07/27 12:06:29;;;;;;;;;;;;;;;39.23;19.07;99796.84;5110843;28;20065;-53
2021/07/27 12:08:54;;;;;;;;;;;;;;;39.66;18.72;99797.66;5110670;28;20295;-52
2021/07/27 12:11:19;;;;;;;;;;;;;;;39.42;18.80;99798.44;5110010;28;19998;-53
2021/07/27 12:13:45;;;;;;;;;;;;;;;39.52;18.62;99792.09;5110274;28;19928;-53
2021/07/27 12:16:10;;;;;;;;;;;;;;;39.50;19.28;99783.34;5112360;28;20323;-53
2021/07/27 12:18:35;;;;;;;;;;;;;;;39.53;19.01;99790.91;5114673;28;19919;-53
2021/07/27 12:21:00;;;;;;;;;;;;;;;39.97;18.20;99783.28;5115348;28;20038;-52
2021/07/27 12:23:26;;;;;;;;;;;;;;;40.55;18.16;99781.84;5114911;28;19977;-52
2021/07/27 12:25:51;;;;;;;;;;;;;;;40.00;18.73;99783.25;5114725;28;19912;-53
2021/07/27 12:28:17;;;;;;;;;;;;;;;40.11;18.09;99771.28;5115165;28;19912;-52
2021/07/27 12:30:42;;;;;;;;;;;;;;;40.23;18.24;99765.25;5114866;28;19981;-53
2021/07/27 12:33:09;;;;;;;;;;;;;;;39.93;18.46;99763.81;5115319;28;19942;-53
2021/07/27 12:35:34;;;;;;;;;;;;;;;40.20;18.87;99763.28;5115502;27;19943;-52
2021/07/27 12:37:59;;;;;;;;;;;;;;;40.62;17.78;99758.72;5115015;27;19951;-51
2021/07/27 12:40:34;;;;;;;;;;;;;;;40.71;17.88;99755.47;5112704;28;19915;-52
2021/07/27 12:43:00;;;;;;;;;;;;;;;39.76;18.72;99745.91;5076281;28;19911;-52
2021/07/27 12:45:25;;;;;;;;;;;;;;;39.59;19.35;99750.31;5093884;28;20470;-52
2021/07/27 12:47:51;;;;;;;;;;;;;;;39.81;18.74;99748.28;5093340;28;20469;-52
2021/07/27 12:50:16;;;;;;;;;;;;;;;40.01;19.05;99743.06;5093965;28;19918;-51
2021/07/27 12:52:41;;;;;;;;;;;;;;;39.86;18.55;99739.50;5094381;28;19924;-51
2021/07/27 12:55:07;;;;;;;;;;;;;;;39.86;19.38;99731.16;5094041;28;19928;-52
2021/07/27 12:57:36;;;;;;;;;;;;;;;40.65;18.50;99730.81;5094213;28;19915;-52
2021/07/27 13:00:02;;;;;;;;;;;;;;;40.70;18.16;99735.16;5093780;28;19912;-53